createdAt,value
2018-06-05T00:00:57.413Z,101302.50
2018-06-05T00:03:25.757Z,101303.88
2018-06-05T00:05:54.029Z,101303.77
2018-06-05T00:08:22.305Z,101301.14
2018-06-05T00:10:50.581Z,101302.85
2018-06-05T00:13:18.893Z,101301.67
2018-06-05T00:15:47.173Z,101302.45
2018-06-05T00:18:15.509Z,101307.09
2018-06-05T00:20:43.774Z,101305.71
2018-06-05T00:23:12.090Z,101308.51
2018-06-05T00:25:40.373Z,101312.58
2018-06-05T00:28:08.638Z,101308.36
2018-06-05T00:30:37.575Z,101300.35
2018-06-05T00:33:05.929Z,101302.81
2018-06-05T00:35:34.305Z,101303.38
2018-06-05T00:38:02.626Z,101298.97
2018-06-05T00:40:30.942Z,101298.97
2018-06-05T00:42:59.271Z,101299.88
2018-06-05T00:45:28.587Z,101301.19
2018-06-05T00:47:56.904Z,101304.13
2018-06-05T00:50:25.555Z,101297.38
2018-06-05T00:52:53.851Z,101305.74
2018-06-05T00:55:22.161Z,101307.81
2018-06-05T00:57:50.461Z,101302.52
2018-06-05T01:00:18.814Z,101309.97
2018-06-05T01:02:47.113Z,101302.95
2018-06-05T01:05:15.436Z,101302.73
2018-06-05T01:07:43.729Z,101306.08
2018-06-05T01:10:12.029Z,101308.14
2018-06-05T01:12:40.341Z,101311.84
2018-06-05T01:15:08.620Z,101313.14
2018-06-05T01:17:36.919Z,101303.12
2018-06-05T01:20:05.238Z,101298.20
2018-06-05T01:22:33.546Z,101302.38
2018-06-05T01:25:02.868Z,101304.94
2018-06-05T01:27:31.149Z,101310.36
2018-06-05T01:29:59.425Z,101303.64
2018-06-05T01:32:28.743Z,101302.53
2018-06-05T01:34:57.048Z,101303.34
2018-06-05T01:37:26.441Z,101305.64
2018-06-05T01:39:54.722Z,101310.16
2018-06-05T01:42:23.025Z,101305.72
2018-06-05T01:44:51.313Z,101304.05
2018-06-05T01:47:19.612Z,101308.99
2018-06-05T01:49:47.869Z,101306.02
2018-06-05T01:52:16.166Z,101305.77
2018-06-05T01:54:44.414Z,101306.20
2018-06-05T01:57:15.855Z,101298.89
2018-06-05T01:59:44.144Z,101296.54
2018-06-05T02:02:12.389Z,101295.58
2018-06-05T02:04:40.700Z,101306.60
2018-06-05T02:07:09.001Z,101295.23
2018-06-05T02:09:37.293Z,101290.51
2018-06-05T02:12:05.652Z,101292.20
2018-06-05T02:14:33.929Z,101293.30
2018-06-05T02:17:03.361Z,101294.97
2018-06-05T02:19:31.682Z,101295.52
2018-06-05T02:21:59.933Z,101293.39
2018-06-05T02:24:28.256Z,101293.14
2018-06-05T02:26:56.568Z,101291.50
2018-06-05T02:29:24.902Z,101292.29
2018-06-05T02:31:54.218Z,101292.05
2018-06-05T02:34:22.472Z,101294.73
2018-06-05T02:36:50.785Z,101304.87
2018-06-05T02:39:19.061Z,101300.78
2018-06-05T02:41:47.369Z,101303.07
2018-06-05T02:44:15.698Z,101302.19
2018-06-05T02:46:43.993Z,101295.92
2018-06-05T02:49:12.265Z,101300.17
2018-06-05T02:51:40.569Z,101300.78
2018-06-05T02:54:08.860Z,101292.59
2018-06-05T02:56:37.150Z,101296.20
2018-06-05T02:59:05.666Z,101295.80
2018-06-05T03:01:33.980Z,101299.15
2018-06-05T03:04:02.303Z,101300.56
2018-06-05T03:06:30.602Z,101295.98
2018-06-05T03:08:58.873Z,101296.17
2018-06-05T03:11:27.190Z,101300.27
2018-06-05T03:13:55.486Z,101303.03
2018-06-05T03:16:23.770Z,101311.14
2018-06-05T03:18:52.106Z,101302.47
2018-06-05T03:21:20.441Z,101300.12
2018-06-05T03:23:49.805Z,101298.85
2018-06-05T03:26:18.105Z,101294.59
2018-06-05T03:28:46.416Z,101290.48
2018-06-05T03:31:14.694Z,101299.56
2018-06-05T03:33:44.122Z,101298.27
2018-06-05T03:36:12.481Z,101295.69
2018-06-05T03:38:40.854Z,101298.97
2018-06-05T03:41:09.153Z,101300.44
2018-06-05T03:43:37.465Z,101312.01
2018-06-05T03:46:05.773Z,101304.64
2018-06-05T03:48:34.061Z,101293.33
2018-06-05T03:51:02.400Z,101303.67
2018-06-05T03:53:30.685Z,101310.70
2018-06-05T03:55:58.996Z,101306.58
2018-06-05T03:58:27.269Z,101301.45
2018-06-05T04:00:55.565Z,101303.14
2018-06-05T04:03:23.833Z,101301.89
2018-06-05T04:05:52.113Z,101307.52
2018-06-05T04:08:20.392Z,101309.12
2018-06-05T04:10:48.712Z,101321.27
2018-06-05T04:13:16.993Z,101321.58
2018-06-05T04:15:45.308Z,101321.04
2018-06-05T04:18:13.582Z,101323.58
2018-06-05T04:20:42.880Z,101332.11
2018-06-05T04:23:11.176Z,101336.90
2018-06-05T04:25:39.601Z,101332.08
2018-06-05T04:28:07.926Z,101340.03
2018-06-05T04:30:36.217Z,101342.07
2018-06-05T04:33:04.493Z,101338.54
2018-06-05T04:35:32.765Z,101342.50
2018-06-05T04:38:01.033Z,101344.70
2018-06-05T04:40:29.335Z,101353.41
2018-06-05T04:42:57.601Z,101356.59
2018-06-05T04:45:26.899Z,101349.66
2018-06-05T04:47:55.157Z,101357.67
2018-06-05T04:50:23.432Z,101359.80
2018-06-05T04:52:51.721Z,101362.48
2018-06-05T04:55:22.104Z,101362.98
2018-06-05T04:57:50.398Z,101367.52
2018-06-05T05:00:18.671Z,101367.31
2018-06-05T05:02:46.949Z,101370.23
2018-06-05T05:05:16.226Z,101371.95
2018-06-05T05:07:44.549Z,101366.51
2018-06-05T05:10:12.829Z,101375.03
2018-06-05T05:12:42.209Z,101376.33
2018-06-05T05:15:10.461Z,101370.19
2018-06-05T05:17:38.759Z,101370.73
2018-06-05T05:20:07.343Z,101378.34
2018-06-05T05:22:35.618Z,101379.44
2018-06-05T05:25:03.948Z,101379.59
2018-06-05T05:27:32.279Z,101383.38
2018-06-05T05:30:00.541Z,101385.56
2018-06-05T05:32:28.848Z,101392.80
2018-06-05T05:34:57.173Z,101394.73
2018-06-05T05:37:25.462Z,101399.36
2018-06-05T05:39:53.777Z,101402.95
2018-06-05T05:42:22.081Z,101411.95
2018-06-05T05:44:50.417Z,101400.91
2018-06-05T05:47:18.674Z,101410.09
2018-06-05T05:49:46.996Z,101411.75
2018-06-05T05:52:15.265Z,101411.56
2018-06-05T05:54:43.575Z,101407.84
2018-06-05T05:57:11.846Z,101400.34
2018-06-05T05:59:41.209Z,101402.42
2018-06-05T06:02:09.525Z,101406.92
2018-06-05T06:04:37.863Z,101408.47
2018-06-05T06:07:07.237Z,101411.70
2018-06-05T06:09:36.568Z,101415.42
2018-06-05T06:12:05.970Z,101416.76
2018-06-05T06:14:34.244Z,101415.91
2018-06-05T06:17:02.501Z,101421.88
2018-06-05T06:19:30.803Z,101418.23
2018-06-05T06:21:59.089Z,101412.55
2018-06-05T06:24:27.424Z,101417.84
2018-06-05T06:26:55.743Z,101410.53
2018-06-05T06:29:23.993Z,101416.80
2018-06-05T06:31:52.321Z,101410.05
2018-06-05T06:34:20.593Z,101417.39
2018-06-05T06:36:48.921Z,101414.91
2018-06-05T06:39:17.249Z,101407.86
2018-06-05T06:41:45.597Z,101411.98
2018-06-05T06:44:15.983Z,101414.22
2018-06-05T06:46:46.325Z,101413.22
2018-06-05T06:49:14.672Z,101425.34
2018-06-05T06:51:42.976Z,101422.78
2018-06-05T06:54:13.761Z,101420.77
2018-06-05T06:56:43.978Z,101424.55
2018-06-05T06:59:12.255Z,101425.74
2018-06-05T07:01:40.619Z,101420.79
2018-06-05T07:04:08.957Z,101421.81
2018-06-05T07:06:37.347Z,101424.86
2018-06-05T07:09:08.329Z,101429.00
2018-06-05T07:11:36.999Z,101428.67
2018-06-05T07:14:05.352Z,101424.88
2018-06-05T07:16:33.659Z,101429.84
2018-06-05T07:19:01.981Z,101425.48
2018-06-05T07:21:30.307Z,101431.16
2018-06-05T07:23:59.721Z,101435.14
2018-06-05T07:26:27.962Z,101439.07
2018-06-05T07:28:57.366Z,101435.92
2018-06-05T07:31:25.670Z,101451.09
2018-06-05T07:33:53.982Z,101443.10
2018-06-05T07:36:22.285Z,101451.92
2018-06-05T07:38:50.616Z,101441.95
2018-06-05T07:41:19.020Z,101446.76
2018-06-05T07:43:47.379Z,101445.62
2018-06-05T07:46:15.649Z,101452.08
2018-06-05T07:48:43.925Z,101448.24
2018-06-05T07:51:13.257Z,101449.36
2018-06-05T07:53:41.566Z,101456.00
2018-06-05T07:56:09.885Z,101450.03
2018-06-05T07:58:41.853Z,101451.52
2018-06-05T08:01:10.189Z,101449.83
2018-06-05T08:03:38.509Z,101446.00
2018-06-05T08:06:08.937Z,101452.72
2018-06-05T08:08:37.232Z,101444.23
2018-06-05T08:11:05.596Z,101443.91
2018-06-05T08:13:33.973Z,101437.64
2018-06-05T08:16:02.289Z,101439.59
2018-06-05T08:18:30.607Z,101443.89
2018-06-05T08:20:58.957Z,101446.12
2018-06-05T08:23:27.257Z,101443.46
2018-06-05T08:25:55.525Z,101451.20
2018-06-05T08:28:23.893Z,101454.11
2018-06-05T08:30:52.169Z,101453.61
2018-06-05T08:33:20.489Z,101451.40
2018-06-05T08:35:49.771Z,101454.38
2018-06-05T08:38:22.043Z,101457.53
2018-06-05T08:40:50.336Z,101457.97
2018-06-05T08:43:18.733Z,101462.23
2018-06-05T08:45:47.036Z,101459.94
2018-06-05T08:48:15.366Z,101467.84
2018-06-05T08:50:43.673Z,101469.66
2018-06-05T08:53:11.993Z,101467.36
2018-06-05T08:55:40.285Z,101470.09
2018-06-05T08:58:08.598Z,101466.78
2018-06-05T09:00:36.926Z,101465.50
2018-06-05T09:03:06.303Z,101468.82
2018-06-05T09:05:34.561Z,101462.75
2018-06-05T09:08:02.873Z,101461.73
2018-06-05T09:10:31.153Z,101468.90
2018-06-05T09:13:01.517Z,101467.50
2018-06-05T09:15:29.857Z,101465.81
2018-06-05T09:17:58.159Z,101459.92
2018-06-05T09:20:26.765Z,101467.74
2018-06-05T09:22:55.037Z,101469.95
2018-06-05T09:25:23.384Z,101473.89
2018-06-05T09:27:51.672Z,101477.83
2018-06-05T09:30:20.509Z,101479.88
2018-06-05T09:32:48.813Z,101478.95
2018-06-05T09:35:17.237Z,101480.75
2018-06-05T09:37:46.538Z,101478.40
2018-06-05T09:40:14.856Z,101483.97
2018-06-05T09:42:43.117Z,101484.49
2018-06-05T09:45:19.460Z,101486.09
2018-06-05T09:47:47.763Z,101481.32
2018-06-05T09:50:16.031Z,101493.95
2018-06-05T09:52:44.385Z,101484.68
2018-06-05T09:55:18.427Z,101485.05
2018-06-05T09:57:46.876Z,101488.48
2018-06-05T10:00:15.059Z,101483.91
2018-06-05T10:02:43.458Z,101486.70
2018-06-05T10:05:13.657Z,101487.07
2018-06-05T10:07:42.145Z,101491.34
2018-06-05T10:10:10.709Z,101489.19
2018-06-05T10:12:39.085Z,101490.31
2018-06-05T10:15:07.494Z,101488.64
2018-06-05T10:17:35.950Z,101486.78
2018-06-05T10:20:04.514Z,101487.87
2018-06-05T10:22:33.050Z,101489.84
2018-06-05T10:25:01.718Z,101489.62
2018-06-05T10:27:30.528Z,101487.28
2018-06-05T10:29:58.945Z,101485.28
2018-06-05T10:32:27.325Z,101480.20
2018-06-05T10:34:55.680Z,101486.62
2018-06-05T10:37:23.937Z,101488.34
2018-06-05T10:39:52.365Z,101486.11
2018-06-05T10:42:20.761Z,101477.68
2018-06-05T10:44:49.713Z,101480.98
2018-06-05T10:47:18.007Z,101484.73
2018-06-05T10:49:46.429Z,101483.42
2018-06-05T10:52:14.718Z,101486.84
2018-06-05T10:54:43.077Z,101485.22
2018-06-05T10:57:11.430Z,101489.25
2018-06-05T10:59:39.822Z,101497.30
2018-06-05T11:02:08.129Z,101495.13
2018-06-05T11:04:36.497Z,101495.84
2018-06-05T11:07:04.799Z,101492.62
2018-06-05T11:09:33.197Z,101489.48
2018-06-05T11:12:02.713Z,101493.80
2018-06-05T11:14:31.132Z,101493.72
2018-06-05T11:16:59.482Z,101494.00
2018-06-05T11:19:27.920Z,101498.08
2018-06-05T11:21:56.263Z,101502.67
2018-06-05T11:24:24.533Z,101498.89
2018-06-05T11:26:52.934Z,101500.60
2018-06-05T11:29:21.201Z,101499.08
2018-06-05T11:31:49.517Z,101501.87
2018-06-05T11:34:18.820Z,101493.28
2018-06-05T11:36:47.409Z,101492.28
2018-06-05T11:39:15.729Z,101497.09
2018-06-05T11:41:43.993Z,101490.79
2018-06-05T11:44:12.387Z,101484.33
2018-06-05T11:46:40.691Z,101488.34
2018-06-05T11:49:10.077Z,101496.74
2018-06-05T11:51:38.377Z,101484.34
2018-06-05T11:54:06.840Z,101497.11
2018-06-05T11:56:35.204Z,101495.84
2018-06-05T11:59:03.580Z,101495.37
2018-06-05T12:01:31.837Z,101490.89
2018-06-05T12:04:01.261Z,101491.48
2018-06-05T12:06:29.609Z,101493.80
2018-06-05T12:08:57.993Z,101495.42
2018-06-05T12:11:26.349Z,101494.88
2018-06-05T12:13:55.817Z,101493.95
2018-06-05T12:16:24.157Z,101483.88
2018-06-05T12:18:52.641Z,101486.19
2018-06-05T12:21:22.950Z,101486.45
2018-06-05T12:23:51.382Z,101492.34
2018-06-05T12:26:20.748Z,101496.04
2018-06-05T12:28:49.021Z,101493.64
2018-06-05T12:31:17.426Z,101495.47
2018-06-05T12:33:45.762Z,101481.52
2018-06-05T12:36:14.198Z,101484.59
2018-06-05T12:38:43.669Z,101485.31
2018-06-05T12:41:12.017Z,101484.68
2018-06-05T12:43:40.404Z,101479.61
2018-06-05T12:46:08.803Z,101480.32
2018-06-05T12:48:37.133Z,101483.09
2018-06-05T12:51:10.196Z,101481.24
2018-06-05T12:53:38.582Z,101478.71
2018-06-05T12:56:06.922Z,101482.38
2018-06-05T12:58:35.243Z,101485.47
2018-06-05T13:01:05.781Z,101486.00
2018-06-05T13:03:34.041Z,101483.28
2018-06-05T13:06:03.405Z,101481.53
2018-06-05T13:08:31.668Z,101484.40
2018-06-05T13:10:59.966Z,101480.91
2018-06-05T13:13:28.365Z,101483.70
2018-06-05T13:15:56.700Z,101477.68
2018-06-05T13:18:25.093Z,101478.14
2018-06-05T13:20:53.426Z,101478.09
2018-06-05T13:23:21.827Z,101483.45
2018-06-05T13:25:50.177Z,101470.98
2018-06-05T13:28:19.490Z,101482.79
2018-06-05T13:30:47.882Z,101481.42
2018-06-05T13:33:16.185Z,101477.58
2018-06-05T13:35:44.513Z,101475.63
2018-06-05T13:38:12.921Z,101477.41
2018-06-05T13:40:41.267Z,101479.12
2018-06-05T13:43:09.673Z,101476.94
2018-06-05T13:45:38.031Z,101473.30
2018-06-05T13:48:06.474Z,101474.94
2018-06-05T13:50:34.813Z,101471.98
2018-06-05T13:53:03.233Z,101467.41
2018-06-05T13:55:32.599Z,101474.01
2018-06-05T13:58:01.984Z,101469.17
2018-06-05T14:00:30.310Z,101473.91
2018-06-05T14:02:59.658Z,101476.05
2018-06-05T14:05:28.089Z,101467.36
2018-06-05T14:07:56.420Z,101471.36
2018-06-05T14:10:24.897Z,101456.09
2018-06-05T14:12:54.289Z,101459.81
2018-06-05T14:15:23.617Z,101465.06
2018-06-05T14:17:51.968Z,101470.91
2018-06-05T14:20:20.367Z,101466.83
2018-06-05T14:22:49.124Z,101462.87
2018-06-05T14:25:17.457Z,101466.52
2018-06-05T14:27:45.793Z,101463.52
2018-06-05T14:30:14.176Z,101462.87
2018-06-05T14:32:42.506Z,101463.58
2018-06-05T14:35:11.932Z,101465.20
2018-06-05T14:37:40.268Z,101458.41
2018-06-05T14:40:08.702Z,101452.17
2018-06-05T14:42:37.049Z,101453.13
2018-06-05T14:45:05.424Z,101449.19
2018-06-05T14:47:34.519Z,101449.72
2018-06-05T14:50:02.785Z,101447.44
2018-06-05T14:52:32.062Z,101448.70
2018-06-05T14:55:01.369Z,101441.27
2018-06-05T14:57:29.738Z,101442.30
2018-06-05T14:59:58.025Z,101444.16
2018-06-05T15:02:26.376Z,101433.63
2018-06-05T15:04:54.653Z,101442.44
2018-06-05T15:07:22.953Z,101439.09
2018-06-05T15:09:51.250Z,101448.55
2018-06-05T15:12:19.586Z,101444.55
2018-06-05T15:14:47.873Z,101446.52
2018-06-05T15:17:17.191Z,101444.86
2018-06-05T15:19:45.473Z,101448.73
2018-06-05T15:22:13.787Z,101440.63
2018-06-05T15:24:42.259Z,101443.34
2018-06-05T15:27:10.549Z,101439.97
2018-06-05T15:29:38.867Z,101446.00
2018-06-05T15:32:06.890Z,101441.70
2018-06-05T15:34:35.233Z,101445.20
2018-06-05T15:37:03.517Z,101436.20
2018-06-05T15:39:32.121Z,101432.45
2018-06-05T15:42:00.420Z,101428.15
2018-06-05T15:44:28.733Z,101430.11
2018-06-05T15:46:57.090Z,101438.66
2018-06-05T15:49:25.405Z,101429.23
2018-06-05T15:51:58.884Z,101431.31
2018-06-05T15:54:27.210Z,101428.61
2018-06-05T15:56:55.530Z,101434.00
2018-06-05T15:59:23.901Z,101426.84
2018-06-05T16:01:52.252Z,101424.42
2018-06-05T16:04:20.537Z,101431.86
2018-06-05T16:06:48.893Z,101429.58
2018-06-05T16:09:17.199Z,101433.26
2018-06-05T16:11:45.509Z,101431.58
2018-06-05T16:14:13.814Z,101432.89
2018-06-05T16:16:42.138Z,101424.05
2018-06-05T16:19:10.531Z,101424.59
2018-06-05T16:21:38.835Z,101430.10
2018-06-05T16:24:09.204Z,101429.36
2018-06-05T16:26:37.495Z,101427.31
2018-06-05T16:29:05.859Z,101443.81
2018-06-05T16:31:34.152Z,101429.53
2018-06-05T16:34:02.430Z,101429.94
2018-06-05T16:36:30.754Z,101432.68
2018-06-05T16:38:59.069Z,101426.83
2018-06-05T16:41:27.381Z,101435.03
2018-06-05T16:43:55.733Z,101435.12
2018-06-05T16:46:24.133Z,101445.61
2018-06-05T16:48:52.415Z,101430.84
2018-06-05T16:51:20.745Z,101432.30
2018-06-05T16:53:50.057Z,101439.95
2018-06-05T16:56:18.365Z,101439.20
2018-06-05T16:58:46.653Z,101442.45
2018-06-05T17:01:14.962Z,101446.38
2018-06-05T17:03:43.294Z,101441.06
2018-06-05T17:06:11.581Z,101441.58
2018-06-05T17:08:39.942Z,101449.30
2018-06-05T17:11:08.236Z,101441.62
2018-06-05T17:13:36.593Z,101442.18
2018-06-05T17:16:04.940Z,101443.80
2018-06-05T17:18:33.251Z,101438.67
2018-06-05T17:21:01.615Z,101442.98
2018-06-05T17:23:31.060Z,101439.42
2018-06-05T17:25:59.342Z,101444.58
2018-06-05T17:28:28.768Z,101444.48
2018-06-05T17:30:57.084Z,101446.65
2018-06-05T17:33:25.366Z,101448.48
2018-06-05T17:35:53.703Z,101448.43
2018-06-05T17:38:21.998Z,101448.64
2018-06-05T17:40:50.341Z,101452.64
2018-06-05T17:43:18.629Z,101456.47
2018-06-05T17:45:46.944Z,101462.80
2018-06-05T17:48:15.228Z,101462.15
2018-06-05T17:50:43.536Z,101460.53
2018-06-05T17:53:12.853Z,101461.59
2018-06-05T17:55:41.165Z,101462.20
2018-06-05T17:58:13.417Z,101466.88
2018-06-05T18:00:41.713Z,101462.24
2018-06-05T18:03:10.060Z,101460.13
2018-06-05T18:05:40.439Z,101473.81
2018-06-05T18:08:09.841Z,101476.09
2018-06-05T18:10:38.794Z,101474.21
2018-06-05T18:13:07.113Z,101477.45
2018-06-05T18:15:35.409Z,101467.69
2018-06-05T18:18:03.729Z,101478.32
2018-06-05T18:20:32.033Z,101480.36
2018-06-05T18:23:00.343Z,101484.48
2018-06-05T18:25:28.685Z,101485.72
2018-06-05T18:27:57.070Z,101486.04
2018-06-05T18:30:25.357Z,101490.45
2018-06-05T18:32:53.650Z,101494.80
2018-06-05T18:35:22.978Z,101490.52
2018-06-05T18:37:51.289Z,101494.73
2018-06-05T18:40:19.589Z,101499.56
2018-06-05T18:42:47.871Z,101498.92
2018-06-05T18:45:17.197Z,101496.17
2018-06-05T18:47:45.594Z,101508.98
2018-06-05T18:50:13.961Z,101506.64
2018-06-05T18:52:42.410Z,101507.47
2018-06-05T18:55:10.655Z,101512.61
2018-06-05T18:57:38.981Z,101505.42
2018-06-05T19:00:07.321Z,101518.67
2018-06-05T19:02:35.740Z,101520.12
2018-06-05T19:05:04.115Z,101520.57
2018-06-05T19:07:32.397Z,101517.08
2018-06-05T19:10:00.729Z,101526.66
2018-06-05T19:12:29.125Z,101526.80
2018-06-05T19:15:02.989Z,101527.53
2018-06-05T19:17:31.258Z,101528.33
2018-06-05T19:19:59.617Z,101534.85
2018-06-05T19:22:28.014Z,101537.05
2018-06-05T19:24:56.293Z,101544.52
2018-06-05T19:27:24.553Z,101543.20
2018-06-05T19:29:52.897Z,101547.22
2018-06-05T19:32:21.125Z,101550.41
2018-06-05T19:34:49.455Z,101549.26
2018-06-05T19:37:17.730Z,101548.28
2018-06-05T19:39:46.008Z,101551.95
2018-06-05T19:42:14.262Z,101549.63
2018-06-05T19:44:42.557Z,101558.79
2018-06-05T19:47:11.877Z,101562.97
2018-06-05T19:50:43.643Z,101568.28
2018-06-05T19:53:11.920Z,101560.15
2018-06-05T19:55:40.213Z,101555.17
2018-06-05T19:58:08.481Z,101558.33
2018-06-05T20:00:36.788Z,101560.81
2018-06-05T20:03:07.052Z,101564.48
2018-06-05T20:05:35.481Z,101567.27
2018-06-05T20:08:03.665Z,101568.94
2018-06-05T20:10:31.961Z,101572.57
2018-06-05T20:13:00.321Z,101571.27
2018-06-05T20:15:28.599Z,101576.72
2018-06-05T20:17:56.959Z,101577.85
2018-06-05T20:20:26.325Z,101581.34
2018-06-05T20:22:54.625Z,101591.30
2018-06-05T20:25:22.970Z,101590.63
2018-06-05T20:27:51.241Z,101590.44
2018-06-05T20:30:19.529Z,101593.62
2018-06-05T20:32:47.849Z,101592.77
2018-06-05T20:35:17.320Z,101600.40
2018-06-05T20:37:45.649Z,101603.19
2018-06-05T20:40:16.342Z,101606.58
2018-06-05T20:42:44.863Z,101599.17
2018-06-05T20:45:19.600Z,101601.75
2018-06-05T20:47:48.997Z,101604.77
2018-06-05T20:50:17.277Z,101612.40
2018-06-05T20:52:49.085Z,101605.77
2018-06-05T20:55:19.410Z,101604.36
2018-06-05T20:57:49.784Z,101608.80
2018-06-05T21:00:21.751Z,101607.22
2018-06-05T21:02:50.099Z,101616.49
2018-06-05T21:05:20.425Z,101610.15
2018-06-05T21:07:48.765Z,101610.32
2018-06-05T21:10:19.121Z,101615.12
2018-06-05T21:12:47.477Z,101616.56
2018-06-05T21:15:15.869Z,101612.30
2018-06-05T21:17:44.518Z,101619.60
2018-06-05T21:20:16.410Z,101619.55
2018-06-05T21:22:44.779Z,101623.85
2018-06-05T21:25:13.451Z,101624.84
2018-06-05T21:27:42.789Z,101625.84
2018-06-05T21:30:11.188Z,101623.30
2018-06-05T21:32:39.477Z,101627.88
2018-06-05T21:35:07.803Z,101631.91
2018-06-05T21:37:37.085Z,101637.20
2018-06-05T21:40:06.242Z,101640.08
2018-06-05T21:42:34.572Z,101641.95
2018-06-05T21:45:02.962Z,101649.19
2018-06-05T21:47:31.341Z,101646.14
2018-06-05T21:50:03.353Z,101649.61
2018-06-05T21:52:31.809Z,101654.97
2018-06-05T21:55:00.142Z,101654.03
2018-06-05T21:57:28.577Z,101656.77
2018-06-05T21:59:56.898Z,101651.47
2018-06-05T22:02:25.300Z,101658.73
2018-06-05T22:04:53.658Z,101661.98
2018-06-05T22:07:21.974Z,101664.88
2018-06-05T22:09:50.255Z,101665.19
2018-06-05T22:12:18.649Z,101663.80
2018-06-05T22:14:46.945Z,101667.09
2018-06-05T22:17:15.246Z,101672.48
2018-06-05T22:19:43.585Z,101674.03
2018-06-05T22:22:12.945Z,101675.05
2018-06-05T22:24:41.236Z,101675.52
2018-06-05T22:27:09.500Z,101675.79
2018-06-05T22:29:37.789Z,101670.95
2018-06-05T22:32:06.070Z,101678.34
2018-06-05T22:34:34.431Z,101680.19
2018-06-05T22:37:02.702Z,101678.99
2018-06-05T22:39:31.001Z,101673.87
2018-06-05T22:41:59.317Z,101675.51
2018-06-05T22:44:27.610Z,101675.02
2018-06-05T22:46:55.977Z,101677.41
2018-06-05T22:49:25.331Z,101674.24
2018-06-05T22:51:53.633Z,101677.38
2018-06-05T22:54:25.387Z,101679.31
2018-06-05T22:56:53.648Z,101681.20
2018-06-05T22:59:21.925Z,101674.73
2018-06-05T23:01:50.228Z,101672.72
2018-06-05T23:04:18.517Z,101679.52
2018-06-05T23:06:47.449Z,101683.25
2018-06-05T23:09:15.730Z,101681.96
2018-06-05T23:11:44.099Z,101681.37
2018-06-05T23:14:12.396Z,101683.38
2018-06-05T23:16:40.698Z,101680.38
2018-06-05T23:19:08.954Z,101684.75
2018-06-05T23:21:37.252Z,101684.95
2018-06-05T23:24:05.553Z,101693.71
2018-06-05T23:26:33.832Z,101696.73
2018-06-05T23:29:02.105Z,101688.69
2018-06-05T23:31:30.429Z,101693.30
2018-06-05T23:33:58.789Z,101691.69
2018-06-05T23:36:27.091Z,101691.34
2018-06-05T23:38:55.353Z,101694.42
2018-06-05T23:41:23.638Z,101689.12
2018-06-05T23:43:52.008Z,101690.04
2018-06-05T23:46:20.272Z,101693.59
2018-06-05T23:48:48.582Z,101698.27
2018-06-05T23:51:17.843Z,101700.34
2018-06-05T23:53:46.146Z,101701.59
2018-06-05T23:56:15.497Z,101702.29
2018-06-05T23:58:43.783Z,101709.94
